Time;durP1;ratioP1;P1;durP2;ratioP2;P2;SDS_P1;SDS_P2;PMS_P1;PMS_P2;Temp;Humidity;BMP_temperature;BMP_pressure;BME280_temperature;BME280_humidity;BME280_pressure;Samples;Min_cycle;Max_cycle;Signal;HPM_P1;HPM_P2
2022/04/13 00:00:50;;;;;;;14.40;8.57;;;;;;;;;;5054732;28;20321;-63
2022/04/13 00:03:19;;;;;;;13.57;7.88;;;;;;;;;;5070267;28;20036;-62
2022/04/13 00:05:46;;;;;;;15.38;10.00;;;;;;;;;;5086040;28;20044;-62
2022/04/13 00:08:12;;;;;;;15.23;9.95;;;;;;;;;;5070064;28;20036;-62
2022/04/13 00:10:39;;;;;;;11.35;9.75;;;;;;;;;;5064278;28;20093;-62
2022/04/13 00:13:06;;;;;;;16.95;10.02;;;;;;;;;;5047034;28;20044;-62
2022/04/13 00:15:32;;;;;;;13.02;9.10;;;;;;;;;;5044703;28;20116;-62
2022/04/13 00:18:06;;;;;;;13.50;9.77;;;;;;;;;;5052989;28;20067;-63
2022/04/13 00:20:36;;;;;;;16.67;10.95;;;;;;;;;;5055073;28;20043;-62
2022/04/13 00:23:11;;;;;;;12.10;9.15;;;;;;;;;;5036858;28;20457;-62
2022/04/13 00:25:39;;;;;;;17.73;10.10;;;;;;;;;;5069066;28;20055;-62
2022/04/13 00:28:12;;;;;;;16.33;10.07;;;;;;;;;;5052453;28;20106;-62
2022/04/13 00:30:39;;;;;;;11.73;9.07;;;;;;;;;;5047975;28;20234;-62
2022/04/13 00:33:05;;;;;;;14.55;11.43;;;;;;;;;;5064083;28;20114;-62
2022/04/13 00:35:38;;;;;;;14.30;11.32;;;;;;;;;;5065840;28;20125;-62
2022/04/13 00:38:06;;;;;;;21.23;11.68;;;;;;;;;;5036032;28;20127;-62
2022/04/13 00:40:33;;;;;;;16.10;11.07;;;;;;;;;;5032822;28;20119;-62
2022/04/13 00:42:59;;;;;;;14.30;11.13;;;;;;;;;;5059738;28;20072;-62
2022/04/13 00:45:27;;;;;;;16.58;11.63;;;;;;;;;;5024810;28;20048;-62
2022/04/13 00:47:54;;;;;;;16.55;11.60;;;;;;;;;;5031816;28;20504;-62
2022/04/13 00:50:21;;;;;;;19.88;12.98;;;;;;;;;;5046266;28;20371;-62
2022/04/13 00:52:55;;;;;;;15.23;11.38;;;;;;;;;;5025165;28;20055;-62
2022/04/13 00:55:24;;;;;;;17.75;11.07;;;;;;;;;;5067601;28;20048;-62
2022/04/13 00:58:06;;;;;;;16.27;11.63;;;;;;;;;;5051996;28;20058;-62
2022/04/13 01:00:38;;;;;;;17.45;12.25;;;;;;;;;;5052848;28;20045;-62
2022/04/13 01:03:07;;;;;;;17.63;12.27;;;;;;;;;;5029304;28;20545;-62
2022/04/13 01:05:36;;;;;;;19.15;12.18;;;;;;;;;;5052454;28;20583;-62
2022/04/13 01:08:08;;;;;;;20.50;12.48;;;;;;;;;;5034303;28;20066;-62
2022/04/13 01:10:38;;;;;;;18.35;13.77;;;;;;;;;;5042543;28;20163;-62
2022/04/13 01:13:08;;;;;;;23.15;12.90;;;;;;;;;;5026455;28;20199;-62
2022/04/13 01:15:38;;;;;;;20.58;13.95;;;;;;;;;;5016131;28;20498;-61
2022/04/13 01:18:07;;;;;;;20.30;13.50;;;;;;;;;;5038104;28;20086;-62
2022/04/13 01:20:48;;;;;;;19.60;14.80;;;;;;;;;;5039972;28;20041;-62
2022/04/13 01:23:22;;;;;;;25.20;18.23;;;;;;;;;;5032723;28;20044;-62
2022/04/13 01:25:52;;;;;;;23.70;16.95;;;;;;;;;;5017751;28;20037;-62
2022/04/13 01:28:19;;;;;;;23.17;16.38;;;;;;;;;;5023722;28;20041;-62
2022/04/13 01:30:47;;;;;;;22.55;16.50;;;;;;;;;;5047429;28;20032;-62
2022/04/13 01:33:13;;;;;;;21.45;15.82;;;;;;;;;;5062253;28;20511;-62
2022/04/13 01:35:47;;;;;;;26.35;17.13;;;;;;;;;;5051106;28;20032;-62
2022/04/13 01:38:14;;;;;;;25.33;15.95;;;;;;;;;;5052794;28;20118;-63
2022/04/13 01:40:51;;;;;;;23.83;16.17;;;;;;;;;;5020124;28;20049;-62
2022/04/13 01:43:21;;;;;;;26.15;17.33;;;;;;;;;;5017750;28;20079;-62
2022/04/13 01:45:51;;;;;;;23.73;15.90;;;;;;;;;;5088850;28;20055;-62
2022/04/13 01:48:21;;;;;;;23.95;16.48;;;;;;;;;;5033731;28;20040;-62
2022/04/13 01:50:49;;;;;;;22.00;17.20;;;;;;;;;;5051585;28;20498;-62
2022/04/13 01:53:16;;;;;;;26.08;16.48;;;;;;;;;;5051692;28;20369;-62
2022/04/13 01:55:43;;;;;;;24.33;15.88;;;;;;;;;;5052548;28;20478;-62
2022/04/13 01:58:16;;;;;;;24.45;15.20;;;;;;;;;;5047605;28;20131;-62
2022/04/13 02:00:43;;;;;;;25.50;15.68;;;;;;;;;;5071067;28;20066;-62
2022/04/13 02:03:13;;;;;;;26.27;14.23;;;;;;;;;;5036565;28;20112;-62
2022/04/13 02:05:40;;;;;;;25.30;14.98;;;;;;;;;;5013814;28;20052;-62
2022/04/13 02:08:11;;;;;;;23.88;15.57;;;;;;;;;;5040951;28;20513;-62
2022/04/13 02:10:43;;;;;;;28.45;16.17;;;;;;;;;;5059005;28;20559;-62
2022/04/13 02:13:10;;;;;;;23.33;16.88;;;;;;;;;;5058841;28;20047;-62
2022/04/13 02:15:38;;;;;;;24.20;16.73;;;;;;;;;;5016468;28;20127;-62
2022/04/13 02:18:05;;;;;;;26.95;16.08;;;;;;;;;;5042383;28;20336;-62
2022/04/13 02:20:33;;;;;;;22.42;15.05;;;;;;;;;;5019819;28;20036;-62
2022/04/13 02:23:11;;;;;;;25.30;15.65;;;;;;;;;;5040298;28;20678;-62
2022/04/13 02:25:41;;;;;;;27.08;16.35;;;;;;;;;;5052367;28;20035;-62
2022/04/13 02:28:09;;;;;;;23.50;14.80;;;;;;;;;;5022056;28;20039;-62
2022/04/13 02:30:36;;;;;;;24.52;15.23;;;;;;;;;;5054223;28;20075;-62
2022/04/13 02:33:07;;;;;;;24.17;16.23;;;;;;;;;;5032805;28;20199;-62
2022/04/13 02:35:34;;;;;;;25.67;15.93;;;;;;;;;;5016251;28;20048;-64
2022/04/13 02:38:01;;;;;;;25.30;16.67;;;;;;;;;;5063882;28;20036;-62
2022/04/13 02:40:29;;;;;;;23.58;17.17;;;;;;;;;;5008734;28;20162;-62
2022/04/13 02:42:56;;;;;;;25.48;16.02;;;;;;;;;;5077041;28;20109;-62
2022/04/13 02:45:23;;;;;;;24.88;16.10;;;;;;;;;;5048433;28;20498;-62
2022/04/13 02:47:50;;;;;;;21.33;15.65;;;;;;;;;;5019661;28;20043;-62
2022/04/13 02:50:18;;;;;;;23.70;17.25;;;;;;;;;;5062132;28;20470;-62
2022/04/13 02:52:54;;;;;;;24.75;18.00;;;;;;;;;;5031501;28;20490;-62
2022/04/13 02:55:21;;;;;;;27.85;17.88;;;;;;;;;;5040514;28;20377;-62
2022/04/13 02:57:48;;;;;;;23.10;16.65;;;;;;;;;;5055576;28;20036;-62
2022/04/13 03:00:15;;;;;;;23.60;16.90;;;;;;;;;;5057780;28;20115;-62
2022/04/13 03:02:44;;;;;;;24.13;16.35;;;;;;;;;;5071743;28;20092;-61
2022/04/13 03:05:13;;;;;;;25.23;16.10;;;;;;;;;;5026341;28;20120;-62
2022/04/13 03:07:44;;;;;;;25.83;17.38;;;;;;;;;;5020152;28;20040;-62
2022/04/13 03:10:15;;;;;;;24.60;16.17;;;;;;;;;;5025065;28;20081;-62
2022/04/13 03:12:42;;;;;;;20.90;14.95;;;;;;;;;;5035471;28;20048;-62
2022/04/13 03:15:09;;;;;;;26.27;16.35;;;;;;;;;;5084574;28;20051;-62
2022/04/13 03:17:36;;;;;;;28.17;17.90;;;;;;;;;;5086827;28;20040;-62
2022/04/13 03:20:03;;;;;;;28.02;17.33;;;;;;;;;;5088770;28;20032;-62
2022/04/13 03:22:30;;;;;;;29.95;16.98;;;;;;;;;;5080972;28;20044;-62
2022/04/13 03:25:00;;;;;;;22.17;16.48;;;;;;;;;;5033621;28;20043;-62
2022/04/13 03:27:27;;;;;;;22.60;18.05;;;;;;;;;;5022245;28;20043;-62
2022/04/13 03:29:55;;;;;;;25.83;16.77;;;;;;;;;;5030257;28;20067;-62
2022/04/13 03:32:22;;;;;;;31.63;17.70;;;;;;;;;;5046094;28;20040;-63
2022/04/13 03:34:52;;;;;;;27.42;16.92;;;;;;;;;;5032629;28;20466;-61
2022/04/13 03:37:19;;;;;;;26.23;16.70;;;;;;;;;;5070099;28;20056;-61
2022/04/13 03:39:46;;;;;;;29.80;18.02;;;;;;;;;;5058809;28;20047;-61
2022/04/13 03:42:14;;;;;;;27.38;17.52;;;;;;;;;;5050275;28;20044;-61
2022/04/13 03:44:43;;;;;;;23.65;18.08;;;;;;;;;;5047031;28;20077;-61
2022/04/13 03:47:11;;;;;;;24.38;16.50;;;;;;;;;;5013270;28;20525;-63
2022/04/13 03:49:42;;;;;;;24.15;16.67;;;;;;;;;;5018442;28;20437;-60
2022/04/13 03:52:09;;;;;;;26.63;18.50;;;;;;;;;;5039359;28;20107;-63
2022/04/13 03:54:35;;;;;;;23.23;17.20;;;;;;;;;;5060857;28;20457;-60
2022/04/13 03:57:01;;;;;;;27.85;18.00;;;;;;;;;;5031900;28;20160;-63
2022/04/13 03:59:28;;;;;;;24.55;17.10;;;;;;;;;;5055506;28;20132;-63
2022/04/13 04:01:55;;;;;;;25.77;18.17;;;;;;;;;;5065072;28;20458;-62
2022/04/13 04:04:22;;;;;;;24.75;18.17;;;;;;;;;;5066070;28;20435;-62
2022/04/13 04:06:49;;;;;;;25.75;17.83;;;;;;;;;;5050566;28;20040;-62
2022/04/13 04:09:16;;;;;;;28.02;17.48;;;;;;;;;;5015089;28;20494;-63
2022/04/13 04:11:45;;;;;;;30.98;19.05;;;;;;;;;;5039329;28;20037;-63
2022/04/13 04:14:12;;;;;;;26.23;18.05;;;;;;;;;;5062799;28;20048;-63
2022/04/13 04:16:40;;;;;;;28.45;18.17;;;;;;;;;;5043690;28;20057;-63
2022/04/13 04:19:09;;;;;;;33.53;18.00;;;;;;;;;;5023317;28;20032;-61
2022/04/13 04:21:37;;;;;;;24.83;17.60;;;;;;;;;;5022600;28;20045;-63
2022/04/13 04:24:05;;;;;;;29.50;18.30;;;;;;;;;;5043527;28;20049;-63
2022/04/13 04:26:32;;;;;;;23.58;17.45;;;;;;;;;;5029998;28;20048;-62
2022/04/13 04:28:59;;;;;;;27.15;18.33;;;;;;;;;;5050222;28;20502;-62
2022/04/13 04:34:14;;;;;;;28.88;19.08;;;;;;;;;;5066482;28;20049;-62
2022/04/13 04:36:40;;;;;;;29.52;20.50;;;;;;;;;;5060345;28;20032;-62
2022/04/13 04:39:07;;;;;;;24.95;19.58;;;;;;;;;;5067330;28;20125;-62
2022/04/13 04:41:35;;;;;;;27.73;18.45;;;;;;;;;;5032994;28;20075;-62
2022/04/13 04:44:01;;;;;;;33.35;21.02;;;;;;;;;;5054157;28;20052;-63
2022/04/13 04:46:31;;;;;;;27.35;21.02;;;;;;;;;;5061136;28;20494;-63
2022/04/13 04:48:59;;;;;;;37.17;22.60;;;;;;;;;;5033450;28;20075;-63
2022/04/13 04:51:31;;;;;;;29.10;21.85;;;;;;;;;;5065832;28;20135;-63
2022/04/13 04:53:59;;;;;;;32.13;22.23;;;;;;;;;;5019086;28;20048;-62
2022/04/13 04:56:26;;;;;;;33.85;23.83;;;;;;;;;;5027111;28;20045;-63
2022/04/13 04:58:53;;;;;;;28.80;19.63;;;;;;;;;;5068152;28;20221;-63
2022/04/13 05:01:19;;;;;;;32.83;24.00;;;;;;;;;;5058602;28;20041;-62
2022/04/13 05:03:49;;;;;;;36.33;25.40;;;;;;;;;;5059604;28;20040;-60
2022/04/13 05:06:22;;;;;;;30.83;21.88;;;;;;;;;;5066080;28;20516;-62
2022/04/13 05:08:51;;;;;;;34.63;20.25;;;;;;;;;;5022389;28;20045;-62
2022/04/13 05:11:18;;;;;;;27.00;18.10;;;;;;;;;;5030715;28;20044;-63
2022/04/13 05:13:45;;;;;;;25.00;18.05;;;;;;;;;;5026360;28;20041;-63
2022/04/13 05:16:13;;;;;;;28.70;20.42;;;;;;;;;;5057391;28;20463;-62
2022/04/13 05:18:41;;;;;;;27.48;18.88;;;;;;;;;;5012937;28;20042;-62
2022/04/13 05:21:08;;;;;;;60.90;19.95;;;;;;;;;;5037057;28;20080;-62
2022/04/13 05:23:37;;;;;;;22.80;18.35;;;;;;;;;;5054221;28;20398;-63
2022/04/13 05:26:06;;;;;;;31.88;19.60;;;;;;;;;;5035969;28;20037;-63
2022/04/13 05:28:33;;;;;;;24.13;18.67;;;;;;;;;;5068963;28;20041;-62
2022/04/13 05:31:03;;;;;;;28.58;19.85;;;;;;;;;;5037564;28;20548;-63
2022/04/13 05:33:36;;;;;;;29.98;19.10;;;;;;;;;;5037186;28;20048;-62
2022/04/13 05:36:04;;;;;;;29.95;18.92;;;;;;;;;;5053480;28;20033;-63
2022/04/13 05:38:31;;;;;;;22.83;18.08;;;;;;;;;;5023975;28;20052;-61
2022/04/13 05:40:58;;;;;;;27.13;19.02;;;;;;;;;;5033564;28;20173;-62
2022/04/13 05:43:25;;;;;;;28.73;19.45;;;;;;;;;;5028750;28;20502;-63
2022/04/13 05:45:52;;;;;;;28.75;18.98;;;;;;;;;;5052769;28;20089;-61
2022/04/13 05:48:19;;;;;;;32.00;18.92;;;;;;;;;;5063459;28;20089;-62
2022/04/13 05:50:46;;;;;;;25.60;18.85;;;;;;;;;;5048888;28;20604;-63
2022/04/13 05:53:28;;;;;;;27.88;18.42;;;;;;;;;;5067450;28;20517;-62
2022/04/13 05:55:57;;;;;;;23.40;17.40;;;;;;;;;;5048062;28;20051;-62
2022/04/13 05:58:26;;;;;;;29.17;17.92;;;;;;;;;;5045343;28;20040;-60
2022/04/13 06:00:56;;;;;;;28.33;16.95;;;;;;;;;;5027538;28;20044;-60
2022/04/13 06:03:23;;;;;;;28.88;16.98;;;;;;;;;;5071172;28;20115;-60
2022/04/13 06:05:51;;;;;;;27.92;17.77;;;;;;;;;;5055203;28;20130;-60
2022/04/13 06:08:18;;;;;;;28.50;17.63;;;;;;;;;;5081098;28;20063;-61
2022/04/13 06:10:47;;;;;;;25.98;17.55;;;;;;;;;;5074117;28;20047;-61
2022/04/13 06:13:14;;;;;;;28.98;17.75;;;;;;;;;;5020201;28;20511;-60
2022/04/13 06:15:44;;;;;;;27.23;16.63;;;;;;;;;;5027794;28;20033;-60
2022/04/13 06:18:12;;;;;;;26.08;17.38;;;;;;;;;;5051159;28;20135;-61
2022/04/13 06:20:38;;;;;;;23.35;16.02;;;;;;;;;;5038612;28;20036;-60
2022/04/13 06:23:08;;;;;;;25.77;17.42;;;;;;;;;;5037638;28;20136;-61
2022/04/13 06:25:35;;;;;;;24.48;17.42;;;;;;;;;;5035994;28;20043;-60
2022/04/13 06:28:01;;;;;;;27.02;19.20;;;;;;;;;;5035058;28;20125;-60
2022/04/13 06:30:28;;;;;;;26.50;16.58;;;;;;;;;;5075829;28;20040;-60
2022/04/13 06:32:57;;;;;;;23.45;16.08;;;;;;;;;;5066203;28;20040;-60
2022/04/13 06:35:23;;;;;;;28.35;17.00;;;;;;;;;;5051680;28;20052;-60
2022/04/13 06:37:50;;;;;;;27.27;16.08;;;;;;;;;;5051353;28;20409;-60
2022/04/13 06:40:16;;;;;;;26.10;16.58;;;;;;;;;;5046903;28;21010;-60
2022/04/13 06:42:45;;;;;;;26.88;16.35;;;;;;;;;;5055326;28;20500;-61
2022/04/13 06:45:13;;;;;;;26.23;16.15;;;;;;;;;;5063181;28;20044;-61
2022/04/13 06:47:40;;;;;;;26.60;16.20;;;;;;;;;;5065416;28;20064;-60
2022/04/13 06:50:07;;;;;;;23.95;16.38;;;;;;;;;;5059616;28;20494;-60
2022/04/13 06:52:35;;;;;;;27.30;15.82;;;;;;;;;;5046051;28;20059;-60
2022/04/13 06:55:02;;;;;;;22.35;16.75;;;;;;;;;;5064530;28;20427;-60
2022/04/13 06:57:37;;;;;;;29.33;18.23;;;;;;;;;;5060412;28;20543;-60
2022/04/13 07:00:05;;;;;;;23.38;17.67;;;;;;;;;;5053647;28;20614;-60
2022/04/13 07:02:31;;;;;;;33.13;16.33;;;;;;;;;;5060814;28;20123;-60
2022/04/13 07:04:57;;;;;;;22.58;15.40;;;;;;;;;;5047626;28;20032;-60
2022/04/13 07:07:24;;;;;;;23.58;17.88;;;;;;;;;;5059660;28;20084;-60
2022/04/13 07:09:51;;;;;;;28.33;18.60;;;;;;;;;;5060858;28;20053;-61
2022/04/13 07:12:17;;;;;;;25.17;16.90;;;;;;;;;;5066015;28;20550;-61
2022/04/13 07:14:43;;;;;;;23.15;17.13;;;;;;;;;;5046968;28;20080;-60
2022/04/13 07:17:13;;;;;;;25.70;16.10;;;;;;;;;;5059144;28;20051;-60
2022/04/13 07:19:39;;;;;;;27.48;16.55;;;;;;;;;;5057563;28;20358;-60
2022/04/13 07:22:07;;;;;;;25.98;18.38;;;;;;;;;;5047293;28;20075;-60
2022/04/13 07:24:35;;;;;;;27.20;17.77;;;;;;;;;;5027292;28;20041;-61
2022/04/13 07:27:01;;;;;;;20.83;16.13;;;;;;;;;;5061657;28;20115;-61
2022/04/13 07:29:27;;;;;;;26.67;18.00;;;;;;;;;;5058508;28;20178;-61
2022/04/13 07:31:56;;;;;;;26.50;16.85;;;;;;;;;;5057662;28;20118;-61
2022/04/13 07:34:23;;;;;;;21.40;15.55;;;;;;;;;;5043289;28;20036;-60
2022/04/13 07:36:49;;;;;;;21.40;15.30;;;;;;;;;;5062183;28;20428;-62
2022/04/13 07:39:16;;;;;;;24.50;15.27;;;;;;;;;;5061934;28;20155;-62
2022/04/13 07:41:45;;;;;;;25.52;14.02;;;;;;;;;;5057844;28;20119;-62
2022/04/13 07:44:12;;;;;;;19.33;13.82;;;;;;;;;;5029439;28;20058;-62
2022/04/13 07:46:41;;;;;;;23.15;15.05;;;;;;;;;;5023741;28;20044;-62
2022/04/13 07:49:09;;;;;;;23.52;15.50;;;;;;;;;;5060180;28;20347;-62
2022/04/13 07:51:43;;;;;;;27.13;13.68;;;;;;;;;;5046436;28;20179;-61
2022/04/13 07:54:19;;;;;;;22.50;14.07;;;;;;;;;;5048453;28;20033;-61
2022/04/13 07:56:45;;;;;;;21.80;13.25;;;;;;;;;;5061047;28;20040;-62
2022/04/13 07:59:15;;;;;;;18.77;13.25;;;;;;;;;;5062075;28;20059;-61
2022/04/13 08:01:44;;;;;;;22.77;12.60;;;;;;;;;;5063453;28;20498;-62
2022/04/13 08:04:13;;;;;;;28.90;13.43;;;;;;;;;;5040185;28;20091;-62
2022/04/13 08:06:39;;;;;;;20.15;13.23;;;;;;;;;;5044586;28;20500;-62
2022/04/13 08:09:06;;;;;;;18.30;12.77;;;;;;;;;;5062796;28;20395;-61
2022/04/13 08:11:32;;;;;;;18.98;12.50;;;;;;;;;;5060651;28;20044;-62
2022/04/13 08:13:58;;;;;;;20.15;12.63;;;;;;;;;;5062234;28;20040;-62
2022/04/13 08:16:27;;;;;;;25.25;13.13;;;;;;;;;;5032491;28;20087;-61
2022/04/13 08:18:54;;;;;;;19.38;13.77;;;;;;;;;;5061913;28;20090;-61
2022/04/13 08:21:20;;;;;;;20.63;12.38;;;;;;;;;;5059970;28;20070;-61
2022/04/13 08:23:50;;;;;;;23.17;12.10;;;;;;;;;;5045248;28;20044;-62
2022/04/13 08:26:17;;;;;;;17.73;12.48;;;;;;;;;;5056213;28;20040;-61
2022/04/13 08:28:43;;;;;;;22.75;13.02;;;;;;;;;;5061726;28;20086;-61
2022/04/13 08:31:11;;;;;;;21.50;12.90;;;;;;;;;;5037858;28;20045;-65
2022/04/13 08:33:37;;;;;;;17.88;12.20;;;;;;;;;;5059425;28;20105;-61
2022/04/13 08:36:04;;;;;;;20.25;11.63;;;;;;;;;;5061042;28;20079;-65
2022/04/13 08:38:31;;;;;;;17.98;11.82;;;;;;;;;;5022400;28;20044;-61
2022/04/13 08:41:01;;;;;;;18.13;12.05;;;;;;;;;;5043651;28;20049;-61
2022/04/13 08:43:51;;;;;;;19.27;12.55;;;;;;;;;;5022435;28;20047;-62
2022/04/13 08:46:24;;;;;;;23.30;12.32;;;;;;;;;;5029477;28;20387;-62
2022/04/13 08:48:52;;;;;;;16.45;11.77;;;;;;;;;;5055641;28;20044;-61
2022/04/13 08:51:19;;;;;;;20.00;12.30;;;;;;;;;;5049025;28;20471;-62
2022/04/13 08:53:48;;;;;;;18.30;12.50;;;;;;;;;;5064518;28;20339;-61
2022/04/13 08:56:18;;;;;;;18.48;13.30;;;;;;;;;;5062282;28;20124;-61
2022/04/13 08:59:03;;;;;;;18.42;11.55;;;;;;;;;;5061284;28;20577;-61
2022/04/13 09:01:39;;;;;;;16.90;11.57;;;;;;;;;;5047415;28;20048;-61
2022/04/13 09:04:10;;;;;;;18.45;12.45;;;;;;;;;;5067140;28;20051;-61
2022/04/13 09:06:38;;;;;;;15.68;12.48;;;;;;;;;;5064627;28;20052;-61
2022/04/13 09:09:05;;;;;;;19.58;11.80;;;;;;;;;;5061709;28;20090;-61
2022/04/13 09:11:32;;;;;;;18.85;11.80;;;;;;;;;;5065017;28;20044;-62
2022/04/13 09:13:58;;;;;;;16.63;12.23;;;;;;;;;;5068221;28;20067;-61
2022/04/13 09:16:25;;;;;;;19.17;11.43;;;;;;;;;;5065857;28;20275;-61
2022/04/13 09:18:51;;;;;;;19.38;11.63;;;;;;;;;;5065801;28;20040;-61
2022/04/13 09:21:18;;;;;;;17.17;11.82;;;;;;;;;;5061377;28;20529;-62
2022/04/13 09:23:44;;;;;;;16.95;11.48;;;;;;;;;;5066601;28;20055;-62
2022/04/13 09:26:10;;;;;;;21.90;10.65;;;;;;;;;;5067952;28;20041;-61
2022/04/13 09:28:37;;;;;;;19.42;10.68;;;;;;;;;;5066034;28;20044;-61
2022/04/13 09:31:03;;;;;;;21.73;12.43;;;;;;;;;;5061616;28;20123;-61
2022/04/13 09:33:30;;;;;;;21.50;10.48;;;;;;;;;;5057557;28;20036;-61
2022/04/13 09:35:56;;;;;;;18.77;10.70;;;;;;;;;;5061281;28;20379;-61
2022/04/13 09:38:22;;;;;;;13.50;10.07;;;;;;;;;;5066472;28;20482;-62
2022/04/13 09:40:53;;;;;;;17.42;10.93;;;;;;;;;;5065506;28;20268;-61
2022/04/13 09:43:21;;;;;;;13.55;9.82;;;;;;;;;;5065129;28;20410;-61
2022/04/13 09:45:49;;;;;;;18.15;9.57;;;;;;;;;;5083468;28;20081;-61
2022/04/13 09:48:16;;;;;;;17.48;9.70;;;;;;;;;;5086378;28;20044;-61
2022/04/13 09:50:44;;;;;;;14.63;9.10;;;;;;;;;;5082717;28;20044;-61
2022/04/13 09:53:11;;;;;;;19.27;10.75;;;;;;;;;;5066659;28;20425;-61
2022/04/13 09:55:41;;;;;;;15.52;9.85;;;;;;;;;;5050086;28;20048;-61
2022/04/13 09:58:12;;;;;;;16.15;10.48;;;;;;;;;;5066912;28;20048;-62
2022/04/13 10:00:39;;;;;;;15.00;9.35;;;;;;;;;;5077981;28;20035;-61
2022/04/13 10:03:08;;;;;;;14.18;9.55;;;;;;;;;;5065643;28;20094;-61
2022/04/13 10:05:34;;;;;;;14.48;9.60;;;;;;;;;;5080639;28;20036;-61
2022/04/13 10:08:01;;;;;;;17.40;11.10;;;;;;;;;;5084151;28;20040;-61
2022/04/13 10:10:28;;;;;;;13.27;10.02;;;;;;;;;;5082566;28;20044;-61
2022/04/13 10:12:54;;;;;;;26.05;9.55;;;;;;;;;;5085893;28;20051;-62
2022/04/13 10:15:21;;;;;;;22.02;10.55;;;;;;;;;;5081889;28;20094;-61
2022/04/13 10:17:47;;;;;;;19.17;10.23;;;;;;;;;;5080060;28;20050;-61
2022/04/13 10:20:13;;;;;;;14.38;8.73;;;;;;;;;;5081342;28;20040;-61
2022/04/13 10:23:01;;;;;;;13.93;8.73;;;;;;;;;;5079273;28;20097;-62
2022/04/13 10:25:27;;;;;;;13.95;9.98;;;;;;;;;;5082535;28;20735;-61
2022/04/13 10:27:54;;;;;;;13.60;8.80;;;;;;;;;;5084640;28;20048;-62
2022/04/13 10:30:29;;;;;;;15.30;8.85;;;;;;;;;;5067360;28;20130;-61
2022/04/13 10:32:59;;;;;;;18.25;9.70;;;;;;;;;;5078650;28;20107;-62
2022/04/13 10:35:26;;;;;;;17.00;9.30;;;;;;;;;;5066322;28;20122;-61
2022/04/13 10:37:54;;;;;;;16.88;9.07;;;;;;;;;;5084677;28;20054;-61
2022/04/13 10:40:21;;;;;;;15.60;9.52;;;;;;;;;;5083336;28;20044;-61
2022/04/13 10:42:48;;;;;;;15.02;7.97;;;;;;;;;;5084650;28;20075;-61
2022/04/13 10:45:14;;;;;;;17.52;8.57;;;;;;;;;;5074517;28;20060;-61
2022/04/13 10:47:45;;;;;;;12.35;7.70;;;;;;;;;;5080205;28;20559;-61
2022/04/13 10:50:13;;;;;;;16.33;8.55;;;;;;;;;;5084193;28;20044;-61
2022/04/13 10:52:45;;;;;;;12.27;7.53;;;;;;;;;;5062810;28;20043;-62
2022/04/13 10:55:12;;;;;;;13.40;8.88;;;;;;;;;;5082385;28;20051;-62
2022/04/13 10:57:41;;;;;;;12.02;7.65;;;;;;;;;;5087548;28;20054;-61
2022/04/13 11:00:07;;;;;;;12.70;7.80;;;;;;;;;;5090123;28;20086;-62
2022/04/13 11:02:40;;;;;;;15.93;8.45;;;;;;;;;;5088495;28;20203;-62
2022/04/13 11:05:07;;;;;;;12.95;6.90;;;;;;;;;;5090052;28;20036;-61
2022/04/13 11:07:33;;;;;;;15.63;7.65;;;;;;;;;;5081384;28;20552;-62
2022/04/13 11:10:00;;;;;;;13.43;7.13;;;;;;;;;;5089197;28;20036;-61
2022/04/13 11:12:27;;;;;;;15.55;7.45;;;;;;;;;;5088947;28;20044;-61
2022/04/13 11:14:54;;;;;;;12.98;6.28;;;;;;;;;;5082586;28;20048;-61
2022/04/13 11:17:20;;;;;;;11.27;7.53;;;;;;;;;;5087172;28;20053;-61
2022/04/13 11:19:48;;;;;;;11.07;6.85;;;;;;;;;;5070727;28;20058;-62
2022/04/13 11:22:18;;;;;;;12.85;6.63;;;;;;;;;;5089848;28;20169;-61
2022/04/13 11:24:47;;;;;;;13.35;6.82;;;;;;;;;;5089909;28;20127;-62
2022/04/13 11:27:14;;;;;;;10.95;7.18;;;;;;;;;;5089955;28;20119;-62
2022/04/13 11:29:44;;;;;;;13.57;7.10;;;;;;;;;;5088656;28;20448;-62
2022/04/13 11:32:17;;;;;;;15.75;8.88;;;;;;;;;;5078847;28;20103;-62
2022/04/13 11:34:52;;;;;;;14.93;7.65;;;;;;;;;;5083711;28;20288;-61
2022/04/13 11:37:25;;;;;;;18.52;8.32;;;;;;;;;;5087929;28;20083;-61
2022/04/13 11:40:06;;;;;;;17.00;8.10;;;;;;;;;;5084756;28;20036;-61
2022/04/13 11:42:35;;;;;;;11.43;7.25;;;;;;;;;;5088424;28;20470;-61
2022/04/13 11:45:01;;;;;;;11.68;7.75;;;;;;;;;;5085308;28;20082;-62
2022/04/13 11:47:40;;;;;;;18.90;8.30;;;;;;;;;;5099314;28;20048;-61
2022/04/13 11:50:06;;;;;;;14.00;8.23;;;;;;;;;;5088600;28;20054;-62
2022/04/13 11:52:46;;;;;;;13.98;8.63;;;;;;;;;;5089083;28;20035;-62
2022/04/13 11:55:19;;;;;;;12.48;8.05;;;;;;;;;;5085786;28;20101;-61
2022/04/13 11:57:51;;;;;;;17.90;8.30;;;;;;;;;;5083068;28;20051;-62
2022/04/13 12:00:35;;;;;;;15.40;8.80;;;;;;;;;;5082687;28;20039;-61
2022/04/13 12:03:02;;;;;;;15.25;8.73;;;;;;;;;;5072660;28;20101;-61
2022/04/13 12:05:28;;;;;;;20.67;9.23;;;;;;;;;;5082487;28;20038;-61
2022/04/13 12:07:54;;;;;;;11.95;8.00;;;;;;;;;;5078361;28;20484;-62
2022/04/13 12:10:24;;;;;;;20.27;9.88;;;;;;;;;;5066054;28;20417;-61
2022/04/13 12:12:51;;;;;;;20.08;10.30;;;;;;;;;;5081978;28;20513;-61
2022/04/13 12:15:17;;;;;;;18.58;10.95;;;;;;;;;;5080806;28;20044;-62
2022/04/13 12:17:43;;;;;;;12.38;8.60;;;;;;;;;;5082218;28;20046;-62
2022/04/13 12:20:09;;;;;;;16.13;8.32;;;;;;;;;;5084152;28;20043;-61
2022/04/13 12:22:36;;;;;;;19.00;10.68;;;;;;;;;;5081721;28;20089;-62
2022/04/13 12:25:03;;;;;;;15.13;9.15;;;;;;;;;;5083161;28;20156;-61
2022/04/13 12:27:30;;;;;;;14.70;8.13;;;;;;;;;;5083986;28;20089;-61
2022/04/13 12:30:09;;;;;;;14.05;7.60;;;;;;;;;;5084325;28;20036;-61
2022/04/13 12:32:42;;;;;;;27.60;9.43;;;;;;;;;;5066025;28;20044;-61
2022/04/13 12:35:09;;;;;;;18.63;9.40;;;;;;;;;;5079706;28;20090;-62
2022/04/13 12:37:35;;;;;;;14.85;9.02;;;;;;;;;;5084340;28;20050;-62
2022/04/13 12:40:18;;;;;;;17.42;9.10;;;;;;;;;;5077637;28;20050;-62
2022/04/13 12:42:44;;;;;;;;;;;;;;;;;;5076515;28;20041;-61
2022/04/13 12:45:13;;;;;;;19.38;10.32;;;;;;;;;;5078808;28;19957;-62
2022/04/13 12:47:49;;;;;;;18.17;10.52;;;;;;;;;;5083270;28;20163;-61
2022/04/13 12:50:15;;;;;;;14.77;9.05;;;;;;;;;;5078009;28;20044;-62
2022/04/13 12:52:42;;;;;;;15.05;10.18;;;;;;;;;;5086387;28;20369;-61
2022/04/13 12:55:09;;;;;;;17.08;9.30;;;;;;;;;;5081190;28;20043;-62
2022/04/13 12:57:35;;;;;;;16.38;9.18;;;;;;;;;;5082527;28;20044;-62
2022/04/13 13:00:01;;;;;;;13.88;9.35;;;;;;;;;;5078862;28;20502;-61
2022/04/13 13:02:27;;;;;;;13.82;9.43;;;;;;;;;;5084028;28;20040;-61
2022/04/13 13:04:54;;;;;;;13.95;8.80;;;;;;;;;;5082131;28;20028;-61
2022/04/13 13:07:30;;;;;;;11.60;8.23;;;;;;;;;;5083046;28;20039;-61
2022/04/13 13:09:56;;;;;;;12.90;7.97;;;;;;;;;;5077721;28;20548;-61
2022/04/13 13:12:25;;;;;;;15.35;8.38;;;;;;;;;;5084178;28;20079;-61
2022/04/13 13:14:53;;;;;;;11.95;8.27;;;;;;;;;;5079905;28;20044;-61
2022/04/13 13:17:30;;;;;;;15.00;8.80;;;;;;;;;;5082144;28;20101;-61
2022/04/13 13:20:07;;;;;;;14.70;8.85;;;;;;;;;;5081920;28;20139;-61
2022/04/13 13:22:38;;;;;;;20.38;9.90;;;;;;;;;;5084669;28;20040;-61
2022/04/13 13:25:06;;;;;;;10.98;8.70;;;;;;;;;;5079680;28;20043;-61
2022/04/13 13:27:40;;;;;;;15.48;6.93;;;;;;;;;;5081319;28;20033;-61
2022/04/13 13:30:09;;;;;;;14.05;8.07;;;;;;;;;;5080667;28;20131;-61
2022/04/13 13:32:39;;;;;;;12.20;7.22;;;;;;;;;;5084677;28;20181;-61
2022/04/13 13:35:12;;;;;;;15.38;7.60;;;;;;;;;;5081512;28;20058;-61
2022/04/13 13:37:40;;;;;;;12.68;8.18;;;;;;;;;;5076026;28;20055;-61
2022/04/13 13:40:26;;;;;;;14.43;8.98;;;;;;;;;;5062545;28;20048;-61
2022/04/13 13:42:52;;;;;;;10.15;6.32;;;;;;;;;;5081718;28;20198;-61
2022/04/13 13:45:18;;;;;;;13.93;7.18;;;;;;;;;;5084378;28;20036;-61
2022/04/13 13:47:45;;;;;;;16.02;7.43;;;;;;;;;;5087260;28;20086;-61
2022/04/13 13:50:11;;;;;;;13.52;6.82;;;;;;;;;;5066428;28;20055;-61
2022/04/13 13:52:38;;;;;;;9.95;7.45;;;;;;;;;;5080423;28;20052;-61
2022/04/13 13:55:04;;;;;;;9.52;6.20;;;;;;;;;;5062878;28;20052;-61
2022/04/13 13:57:31;;;;;;;9.75;6.13;;;;;;;;;;5081324;28;20048;-61
2022/04/13 13:59:57;;;;;;;13.80;6.43;;;;;;;;;;5083959;28;20036;-61
2022/04/13 14:02:23;;;;;;;14.88;6.45;;;;;;;;;;5086169;28;20051;-61
2022/04/13 14:04:49;;;;;;;12.40;6.63;;;;;;;;;;5080275;28;20433;-61
2022/04/13 14:07:17;;;;;;;10.95;6.45;;;;;;;;;;5085075;28;20040;-61
2022/04/13 14:09:44;;;;;;;15.40;7.28;;;;;;;;;;5084072;28;20048;-61
2022/04/13 14:12:10;;;;;;;11.45;5.93;;;;;;;;;;5086936;28;20055;-61
2022/04/13 14:14:36;;;;;;;14.93;6.03;;;;;;;;;;5079426;28;20041;-60
2022/04/13 14:17:02;;;;;;;12.32;6.30;;;;;;;;;;5080446;28;20482;-61
2022/04/13 14:19:33;;;;;;;11.43;5.63;;;;;;;;;;5082704;28;20036;-61
2022/04/13 14:21:59;;;;;;;11.90;6.13;;;;;;;;;;5082401;28;20052;-61
2022/04/13 14:24:25;;;;;;;10.68;5.57;;;;;;;;;;5078861;28;20040;-61
2022/04/13 14:26:52;;;;;;;8.98;5.43;;;;;;;;;;5086892;28;20089;-61
2022/04/13 14:29:18;;;;;;;13.40;5.60;;;;;;;;;;5067334;28;20065;-61
2022/04/13 14:31:44;;;;;;;8.10;4.75;;;;;;;;;;5085288;28;20040;-61